Weather at Bauerfield International Airport

Public forecast

Using degrees Celsius for public forecast. Weather courtesy of forecast.io.

Current aviation weather report (METAR) for Bauerfield International Airport

Report is more than 6 hours old.

2022/11/14 15:00 (retrieved 2 years ago)

NVVV 141500Z VRB03KT 9999 FEW020 23/23 Q1008

Aviation forecast (TAF) for Bauerfield International Airport

Forecast is more than 12 hours old.

2023/02/22 18:00 (retrieved 1 year ago)

TAF NVVV 221700Z 2218/2318 10006KT 9999 SCT020 INTER 2218/2224 9000 -SHRA BKN018